sensor_id;sensor_type;location;lat;lon;timestamp;temperature;humidity
57026;DHT22;43961;52.940;6.834;2023-07-29T00:01:59;18.20;99.90
57026;DHT22;43961;52.940;6.834;2023-07-29T00:04:25;17.90;99.90
57026;DHT22;43961;52.940;6.834;2023-07-29T00:06:51;18.10;99.90
57026;DHT22;43961;52.940;6.834;2023-07-29T00:09:16;17.90;99.90
57026;DHT22;43961;52.940;6.834;2023-07-29T00:11:42;17.90;99.90
57026;DHT22;43961;52.940;6.834;2023-07-29T00:14:08;18.10;99.90
57026;DHT22;43961;52.940;6.834;2023-07-29T00:16:33;17.70;99.90
57026;DHT22;43961;52.940;6.834;2023-07-29T00:18:59;17.70;99.90
57026;DHT22;43961;52.940;6.834;2023-07-29T00:21:25;17.80;99.90
57026;DHT22;43961;52.940;6.834;2023-07-29T00:23:50;18.00;99.90
57026;DHT22;43961;52.940;6.834;2023-07-29T00:26:16;17.90;99.90
57026;DHT22;43961;52.940;6.834;2023-07-29T00:28:42;18.00;99.90
57026;DHT22;43961;52.940;6.834;2023-07-29T00:31:07;17.90;99.90
57026;DHT22;43961;52.940;6.834;2023-07-29T00:33:33;17.70;99.90
57026;DHT22;43961;52.940;6.834;2023-07-29T00:35:59;17.70;99.90
57026;DHT22;43961;52.940;6.834;2023-07-29T00:38:27;17.60;99.90
57026;DHT22;43961;52.940;6.834;2023-07-29T00:43:19;17.70;99.90
57026;DHT22;43961;52.940;6.834;2023-07-29T00:45:49;17.70;99.90
57026;DHT22;43961;52.940;6.834;2023-07-29T00:50:41;17.50;99.90
57026;DHT22;43961;52.940;6.834;2023-07-29T00:53:07;17.40;99.90
57026;DHT22;43961;52.940;6.834;2023-07-29T00:55:33;17.40;99.90
57026;DHT22;43961;52.940;6.834;2023-07-29T01:00:26;17.40;99.90
57026;DHT22;43961;52.940;6.834;2023-07-29T01:05:21;17.40;99.90
57026;DHT22;43961;52.940;6.834;2023-07-29T01:10:43;17.40;99.90
57026;DHT22;43961;52.940;6.834;2023-07-29T01:15:55;17.20;99.90
57026;DHT22;43961;52.940;6.834;2023-07-29T01:18:28;17.40;99.90
57026;DHT22;43961;52.940;6.834;2023-07-29T01:23:30;17.30;99.90
57026;DHT22;43961;52.940;6.834;2023-07-29T01:25:55;17.20;99.90
57026;DHT22;43961;52.940;6.834;2023-07-29T01:36:31;17.40;99.90
57026;DHT22;43961;52.940;6.834;2023-07-29T01:51:12;17.20;99.90
57026;DHT22;43961;52.940;6.834;2023-07-29T01:53:38;17.10;99.90
57026;DHT22;43961;52.940;6.834;2023-07-29T02:00:56;17.10;99.90
57026;DHT22;43961;52.940;6.834;2023-07-29T02:22:53;17.10;99.90
57026;DHT22;43961;52.940;6.834;2023-07-29T02:27:45;16.90;99.90
57026;DHT22;43961;52.940;6.834;2023-07-29T02:30:11;16.80;99.90
57026;DHT22;43961;52.940;6.834;2023-07-29T02:44:49;17.00;99.90
57026;DHT22;43961;52.940;6.834;2023-07-29T02:52:07;16.90;99.90
57026;DHT22;43961;52.940;6.834;2023-07-29T03:04:19;16.80;99.90
57026;DHT22;43961;52.940;6.834;2023-07-29T03:21:23;17.00;99.90
57026;DHT22;43961;52.940;6.834;2023-07-29T03:28:42;17.00;99.90
57026;DHT22;43961;52.940;6.834;2023-07-29T03:36:00;16.80;99.90
57026;DHT22;43961;52.940;6.834;2023-07-29T03:50:37;16.80;99.90
57026;DHT22;43961;52.940;6.834;2023-07-29T03:53:04;16.70;99.90
57026;DHT22;43961;52.940;6.834;2023-07-29T03:55:30;16.70;99.90
57026;DHT22;43961;52.940;6.834;2023-07-29T04:02:49;16.80;99.90
57026;DHT22;43961;52.940;6.834;2023-07-29T04:15:01;16.50;99.90
57026;DHT22;43961;52.940;6.834;2023-07-29T04:19:53;16.50;99.90
57026;DHT22;43961;52.940;6.834;2023-07-29T04:49:09;16.60;99.90
57026;DHT22;43961;52.940;6.834;2023-07-29T05:03:47;16.70;99.90
57026;DHT22;43961;52.940;6.834;2023-07-29T05:06:13;16.70;99.90
57026;DHT22;43961;52.940;6.834;2023-07-29T05:15:57;16.70;99.90
57026;DHT22;43961;52.940;6.834;2023-07-29T05:58:23;17.10;99.90
57026;DHT22;43961;52.940;6.834;2023-07-29T06:22:45;17.50;99.90
57026;DHT22;43961;52.940;6.834;2023-07-29T07:01:45;18.20;99.90
57026;DHT22;43961;52.940;6.834;2023-07-29T07:06:36;18.40;99.90
57026;DHT22;43961;52.940;6.834;2023-07-29T07:09:02;18.50;99.90
57026;DHT22;43961;52.940;6.834;2023-07-29T07:11:28;18.60;99.90
57026;DHT22;43961;52.940;6.834;2023-07-29T07:16:20;19.10;99.90
57026;DHT22;43961;52.940;6.834;2023-07-29T07:21:12;19.30;99.90
57026;DHT22;43961;52.940;6.834;2023-07-29T07:23:39;19.30;99.90
57026;DHT22;43961;52.940;6.834;2023-07-29T07:26:05;19.70;99.90
57026;DHT22;43961;52.940;6.834;2023-07-29T07:28:31;19.50;99.90
57026;DHT22;43961;52.940;6.834;2023-07-29T07:33:23;19.80;99.90
57026;DHT22;43961;52.940;6.834;2023-07-29T07:35:48;19.70;99.90
57026;DHT22;43961;52.940;6.834;2023-07-29T07:38:14;20.10;99.90
57026;DHT22;43961;52.940;6.834;2023-07-29T07:43:06;20.10;99.90
57026;DHT22;43961;52.940;6.834;2023-07-29T07:45:32;20.40;99.90
57026;DHT22;43961;52.940;6.834;2023-07-29T07:47:58;20.10;99.90
57026;DHT22;43961;52.940;6.834;2023-07-29T07:50:24;20.20;99.90
57026;DHT22;43961;52.940;6.834;2023-07-29T07:55:16;20.60;99.90
57026;DHT22;43961;52.940;6.834;2023-07-29T07:57:42;20.80;99.90
57026;DHT22;43961;52.940;6.834;2023-07-29T08:00:08;21.00;99.90
57026;DHT22;43961;52.940;6.834;2023-07-29T08:02:35;20.60;99.90
57026;DHT22;43961;52.940;6.834;2023-07-29T08:05:01;20.70;99.90
57026;DHT22;43961;52.940;6.834;2023-07-29T08:07:26;20.70;99.90
57026;DHT22;43961;52.940;6.834;2023-07-29T08:09:52;20.70;99.90
57026;DHT22;43961;52.940;6.834;2023-07-29T08:12:18;20.70;99.90
57026;DHT22;43961;52.940;6.834;2023-07-29T08:14:44;21.20;99.90
57026;DHT22;43961;52.940;6.834;2023-07-29T08:17:12;21.20;99.90
57026;DHT22;43961;52.940;6.834;2023-07-29T08:19:41;21.40;99.90
57026;DHT22;43961;52.940;6.834;2023-07-29T08:22:13;21.20;99.90
57026;DHT22;43961;52.940;6.834;2023-07-29T08:24:39;21.20;99.90
57026;DHT22;43961;52.940;6.834;2023-07-29T08:27:05;21.90;99.90
57026;DHT22;43961;52.940;6.834;2023-07-29T08:29:30;21.50;99.90
57026;DHT22;43961;52.940;6.834;2023-07-29T08:31:56;21.50;99.90
57026;DHT22;43961;52.940;6.834;2023-07-29T08:34:22;22.10;99.90
57026;DHT22;43961;52.940;6.834;2023-07-29T08:36:48;22.20;99.90
57026;DHT22;43961;52.940;6.834;2023-07-29T08:39:14;21.90;99.90
57026;DHT22;43961;52.940;6.834;2023-07-29T08:42:09;22.30;99.90
57026;DHT22;43961;52.940;6.834;2023-07-29T08:44:41;22.10;99.90
57026;DHT22;43961;52.940;6.834;2023-07-29T08:47:07;22.80;99.90
57026;DHT22;43961;52.940;6.834;2023-07-29T08:49:33;22.50;99.90
57026;DHT22;43961;52.940;6.834;2023-07-29T08:51:59;22.70;99.90
57026;DHT22;43961;52.940;6.834;2023-07-29T08:54:26;22.60;99.90
57026;DHT22;43961;52.940;6.834;2023-07-29T08:56:52;22.50;99.90
57026;DHT22;43961;52.940;6.834;2023-07-29T08:59:19;23.00;99.90
57026;DHT22;43961;52.940;6.834;2023-07-29T09:01:44;22.50;99.90
57026;DHT22;43961;52.940;6.834;2023-07-29T09:04:10;22.40;99.90
57026;DHT22;43961;52.940;6.834;2023-07-29T09:06:36;22.70;99.90
57026;DHT22;43961;52.940;6.834;2023-07-29T09:09:07;22.50;99.90
57026;DHT22;43961;52.940;6.834;2023-07-29T09:11:33;22.80;99.90
57026;DHT22;43961;52.940;6.834;2023-07-29T09:13:59;22.70;99.90
57026;DHT22;43961;52.940;6.834;2023-07-29T09:16:25;22.70;99.90
57026;DHT22;43961;52.940;6.834;2023-07-29T09:18:51;22.70;99.90
57026;DHT22;43961;52.940;6.834;2023-07-29T09:23:44;23.00;99.90
57026;DHT22;43961;52.940;6.834;2023-07-29T09:26:11;22.70;99.90
57026;DHT22;43961;52.940;6.834;2023-07-29T09:28:38;22.80;99.90
57026;DHT22;43961;52.940;6.834;2023-07-29T09:31:04;23.30;99.90
57026;DHT22;43961;52.940;6.834;2023-07-29T09:33:34;23.30;99.90
57026;DHT22;43961;52.940;6.834;2023-07-29T09:36:09;23.90;99.90
57026;DHT22;43961;52.940;6.834;2023-07-29T09:38:35;23.90;99.90
57026;DHT22;43961;52.940;6.834;2023-07-29T09:41:01;24.10;99.90
57026;DHT22;43961;52.940;6.834;2023-07-29T09:43:34;24.40;99.90
57026;DHT22;43961;52.940;6.834;2023-07-29T09:46:01;24.50;99.90
57026;DHT22;43961;52.940;6.834;2023-07-29T09:48:27;25.10;99.90
57026;DHT22;43961;52.940;6.834;2023-07-29T09:50:57;25.20;99.90
57026;DHT22;43961;52.940;6.834;2023-07-29T09:53:22;25.20;99.90
57026;DHT22;43961;52.940;6.834;2023-07-29T09:55:49;24.80;99.90
57026;DHT22;43961;52.940;6.834;2023-07-29T09:58:25;24.80;99.90
57026;DHT22;43961;52.940;6.834;2023-07-29T10:00:52;24.80;99.90
57026;DHT22;43961;52.940;6.834;2023-07-29T10:03:21;24.60;99.90
57026;DHT22;43961;52.940;6.834;2023-07-29T10:05:46;24.50;99.90
57026;DHT22;43961;52.940;6.834;2023-07-29T10:08:13;25.00;99.90
57026;DHT22;43961;52.940;6.834;2023-07-29T10:10:42;24.50;99.90
57026;DHT22;43961;52.940;6.834;2023-07-29T10:13:09;25.10;99.90
57026;DHT22;43961;52.940;6.834;2023-07-29T10:15:36;24.90;99.90
57026;DHT22;43961;52.940;6.834;2023-07-29T10:18:02;25.20;99.90
57026;DHT22;43961;52.940;6.834;2023-07-29T10:20:30;25.50;99.90
57026;DHT22;43961;52.940;6.834;2023-07-29T10:22:59;25.30;99.90
57026;DHT22;43961;52.940;6.834;2023-07-29T10:25:25;25.10;99.90
57026;DHT22;43961;52.940;6.834;2023-07-29T10:28:08;25.00;99.90
57026;DHT22;43961;52.940;6.834;2023-07-29T10:30:35;25.40;99.90
57026;DHT22;43961;52.940;6.834;2023-07-29T10:33:03;25.40;99.90
57026;DHT22;43961;52.940;6.834;2023-07-29T10:35:31;25.20;99.90
57026;DHT22;43961;52.940;6.834;2023-07-29T10:37:59;25.10;99.90
57026;DHT22;43961;52.940;6.834;2023-07-29T10:40:25;25.10;99.90
57026;DHT22;43961;52.940;6.834;2023-07-29T10:43:10;25.60;99.90
57026;DHT22;43961;52.940;6.834;2023-07-29T10:45:37;25.40;99.90
57026;DHT22;43961;52.940;6.834;2023-07-29T10:48:10;25.50;99.90
57026;DHT22;43961;52.940;6.834;2023-07-29T10:50:36;25.60;99.90
57026;DHT22;43961;52.940;6.834;2023-07-29T10:53:02;25.70;99.90
57026;DHT22;43961;52.940;6.834;2023-07-29T10:55:35;26.00;99.90
57026;DHT22;43961;52.940;6.834;2023-07-29T10:58:11;25.80;99.90
57026;DHT22;43961;52.940;6.834;2023-07-29T11:00:38;26.40;99.90
57026;DHT22;43961;52.940;6.834;2023-07-29T11:03:08;26.10;99.90
57026;DHT22;43961;52.940;6.834;2023-07-29T11:05:50;26.30;99.90
57026;DHT22;43961;52.940;6.834;2023-07-29T11:08:21;25.90;99.90
57026;DHT22;43961;52.940;6.834;2023-07-29T11:11:02;26.20;99.90
57026;DHT22;43961;52.940;6.834;2023-07-29T11:13:34;25.80;99.90
57026;DHT22;43961;52.940;6.834;2023-07-29T11:16:00;25.80;99.90
57026;DHT22;43961;52.940;6.834;2023-07-29T11:18:32;26.10;99.90
57026;DHT22;43961;52.940;6.834;2023-07-29T11:21:00;26.30;99.90
57026;DHT22;43961;52.940;6.834;2023-07-29T11:23:36;26.10;99.90
57026;DHT22;43961;52.940;6.834;2023-07-29T11:26:03;25.80;99.90
57026;DHT22;43961;52.940;6.834;2023-07-29T11:28:29;25.20;99.90
57026;DHT22;43961;52.940;6.834;2023-07-29T11:30:56;24.70;99.90
57026;DHT22;43961;52.940;6.834;2023-07-29T11:33:25;24.60;99.90
57026;DHT22;43961;52.940;6.834;2023-07-29T11:35:51;24.20;99.90
57026;DHT22;43961;52.940;6.834;2023-07-29T11:38:18;24.10;99.90
57026;DHT22;43961;52.940;6.834;2023-07-29T11:40:58;23.40;99.90
57026;DHT22;43961;52.940;6.834;2023-07-29T11:43:23;23.60;99.90
57026;DHT22;43961;52.940;6.834;2023-07-29T11:45:50;23.10;99.90
57026;DHT22;43961;52.940;6.834;2023-07-29T11:48:16;23.10;99.90
57026;DHT22;43961;52.940;6.834;2023-07-29T11:50:42;23.30;99.90
57026;DHT22;43961;52.940;6.834;2023-07-29T11:56:14;23.70;99.90
57026;DHT22;43961;52.940;6.834;2023-07-29T11:58:40;24.10;99.90
57026;DHT22;43961;52.940;6.834;2023-07-29T12:01:06;24.00;99.90
57026;DHT22;43961;52.940;6.834;2023-07-29T12:03:33;23.60;99.90
57026;DHT22;43961;52.940;6.834;2023-07-29T12:05:59;23.60;99.90
57026;DHT22;43961;52.940;6.834;2023-07-29T12:08:25;23.30;99.90
57026;DHT22;43961;52.940;6.834;2023-07-29T12:10:51;23.50;99.90
57026;DHT22;43961;52.940;6.834;2023-07-29T12:13:17;23.20;99.90
57026;DHT22;43961;52.940;6.834;2023-07-29T12:15:43;23.10;99.90
57026;DHT22;43961;52.940;6.834;2023-07-29T12:18:08;23.30;99.90
57026;DHT22;43961;52.940;6.834;2023-07-29T12:20:34;23.60;99.90
57026;DHT22;43961;52.940;6.834;2023-07-29T12:23:00;23.50;99.90
57026;DHT22;43961;52.940;6.834;2023-07-29T12:25:28;23.20;99.90
57026;DHT22;43961;52.940;6.834;2023-07-29T12:27:54;23.40;99.90
57026;DHT22;43961;52.940;6.834;2023-07-29T12:30:21;23.70;99.90
57026;DHT22;43961;52.940;6.834;2023-07-29T12:32:48;23.70;99.90
57026;DHT22;43961;52.940;6.834;2023-07-29T12:35:14;23.50;99.90
57026;DHT22;43961;52.940;6.834;2023-07-29T12:37:40;23.60;99.90
57026;DHT22;43961;52.940;6.834;2023-07-29T12:40:28;24.00;99.90
57026;DHT22;43961;52.940;6.834;2023-07-29T12:42:55;23.60;99.90
57026;DHT22;43961;52.940;6.834;2023-07-29T12:45:21;24.20;99.90
57026;DHT22;43961;52.940;6.834;2023-07-29T12:47:52;23.90;99.90
57026;DHT22;43961;52.940;6.834;2023-07-29T12:50:18;24.10;99.90
57026;DHT22;43961;52.940;6.834;2023-07-29T12:52:43;24.30;99.90
57026;DHT22;43961;52.940;6.834;2023-07-29T12:55:09;24.30;99.90
57026;DHT22;43961;52.940;6.834;2023-07-29T12:57:39;24.50;99.90
57026;DHT22;43961;52.940;6.834;2023-07-29T13:00:05;24.60;99.90
57026;DHT22;43961;52.940;6.834;2023-07-29T13:02:31;24.60;99.90
57026;DHT22;43961;52.940;6.834;2023-07-29T13:04:57;24.80;99.90
57026;DHT22;43961;52.940;6.834;2023-07-29T13:07:23;24.30;99.90
57026;DHT22;43961;52.940;6.834;2023-07-29T13:09:49;24.30;99.90
57026;DHT22;43961;52.940;6.834;2023-07-29T13:12:14;24.20;99.90
57026;DHT22;43961;52.940;6.834;2023-07-29T13:14:40;24.50;99.90
57026;DHT22;43961;52.940;6.834;2023-07-29T13:17:05;24.30;99.90
57026;DHT22;43961;52.940;6.834;2023-07-29T13:19:31;24.60;99.90
57026;DHT22;43961;52.940;6.834;2023-07-29T13:21:57;24.70;99.90
57026;DHT22;43961;52.940;6.834;2023-07-29T13:24:22;24.30;99.90
57026;DHT22;43961;52.940;6.834;2023-07-29T13:26:48;24.20;99.90
57026;DHT22;43961;52.940;6.834;2023-07-29T13:29:14;24.10;99.90
57026;DHT22;43961;52.940;6.834;2023-07-29T13:31:39;24.20;99.90
57026;DHT22;43961;52.940;6.834;2023-07-29T13:34:05;24.70;99.90
57026;DHT22;43961;52.940;6.834;2023-07-29T13:36:30;24.90;99.90
57026;DHT22;43961;52.940;6.834;2023-07-29T13:38:56;24.70;99.90
57026;DHT22;43961;52.940;6.834;2023-07-29T13:41:22;25.20;99.90
57026;DHT22;43961;52.940;6.834;2023-07-29T13:43:48;25.20;99.90
57026;DHT22;43961;52.940;6.834;2023-07-29T13:46:13;25.10;99.90
57026;DHT22;43961;52.940;6.834;2023-07-29T13:48:39;24.80;99.90
57026;DHT22;43961;52.940;6.834;2023-07-29T13:51:05;24.70;99.90
57026;DHT22;43961;52.940;6.834;2023-07-29T13:53:31;24.60;99.90
57026;DHT22;43961;52.940;6.834;2023-07-29T13:55:56;24.60;99.90
57026;DHT22;43961;52.940;6.834;2023-07-29T13:58:22;24.20;99.90
57026;DHT22;43961;52.940;6.834;2023-07-29T14:00:48;24.10;99.90
57026;DHT22;43961;52.940;6.834;2023-07-29T14:03:13;24.00;99.90
57026;DHT22;43961;52.940;6.834;2023-07-29T14:05:39;23.90;99.90
57026;DHT22;43961;52.940;6.834;2023-07-29T14:08:05;23.90;99.90
57026;DHT22;43961;52.940;6.834;2023-07-29T14:10:30;23.90;99.90
57026;DHT22;43961;52.940;6.834;2023-07-29T14:12:56;23.80;99.90
57026;DHT22;43961;52.940;6.834;2023-07-29T14:15:22;23.80;99.90
57026;DHT22;43961;52.940;6.834;2023-07-29T14:17:48;23.90;99.90
57026;DHT22;43961;52.940;6.834;2023-07-29T14:20:13;24.00;99.90
57026;DHT22;43961;52.940;6.834;2023-07-29T14:22:39;23.80;99.90
57026;DHT22;43961;52.940;6.834;2023-07-29T14:25:06;24.00;99.90
57026;DHT22;43961;52.940;6.834;2023-07-29T14:27:32;24.10;99.90
57026;DHT22;43961;52.940;6.834;2023-07-29T14:29:57;23.70;99.90
57026;DHT22;43961;52.940;6.834;2023-07-29T14:32:23;24.00;99.90
57026;DHT22;43961;52.940;6.834;2023-07-29T14:34:48;23.70;99.90
57026;DHT22;43961;52.940;6.834;2023-07-29T14:37:14;23.70;99.90
57026;DHT22;43961;52.940;6.834;2023-07-29T14:39:40;23.90;99.90
57026;DHT22;43961;52.940;6.834;2023-07-29T14:42:05;23.60;99.90
57026;DHT22;43961;52.940;6.834;2023-07-29T14:44:32;23.70;99.90
57026;DHT22;43961;52.940;6.834;2023-07-29T14:46:57;23.30;99.90
57026;DHT22;43961;52.940;6.834;2023-07-29T14:49:23;23.60;99.90
57026;DHT22;43961;52.940;6.834;2023-07-29T14:51:49;23.50;99.90
57026;DHT22;43961;52.940;6.834;2023-07-29T14:54:14;23.60;99.90
57026;DHT22;43961;52.940;6.834;2023-07-29T14:56:40;23.30;99.90
57026;DHT22;43961;52.940;6.834;2023-07-29T15:02:15;23.70;99.90
57026;DHT22;43961;52.940;6.834;2023-07-29T15:04:41;23.40;99.90
57026;DHT22;43961;52.940;6.834;2023-07-29T15:07:06;23.70;99.90
57026;DHT22;43961;52.940;6.834;2023-07-29T15:09:32;23.30;99.90
57026;DHT22;43961;52.940;6.834;2023-07-29T15:11:59;23.20;99.90
57026;DHT22;43961;52.940;6.834;2023-07-29T15:14:25;23.40;99.90
57026;DHT22;43961;52.940;6.834;2023-07-29T15:16:50;23.20;99.90
57026;DHT22;43961;52.940;6.834;2023-07-29T15:19:16;23.50;99.90
57026;DHT22;43961;52.940;6.834;2023-07-29T15:21:41;23.40;99.90
57026;DHT22;43961;52.940;6.834;2023-07-29T15:24:07;23.30;99.90
57026;DHT22;43961;52.940;6.834;2023-07-29T15:29:00;23.20;99.90
57026;DHT22;43961;52.940;6.834;2023-07-29T15:31:26;23.30;99.90
57026;DHT22;43961;52.940;6.834;2023-07-29T15:33:52;23.20;99.90
57026;DHT22;43961;52.940;6.834;2023-07-29T15:36:18;23.20;99.90
57026;DHT22;43961;52.940;6.834;2023-07-29T15:38:43;23.50;99.90
57026;DHT22;43961;52.940;6.834;2023-07-29T15:41:09;23.10;99.90
57026;DHT22;43961;52.940;6.834;2023-07-29T15:43:35;23.50;99.90
57026;DHT22;43961;52.940;6.834;2023-07-29T15:46:00;23.20;99.90
57026;DHT22;43961;52.940;6.834;2023-07-29T15:48:26;23.30;99.90
57026;DHT22;43961;52.940;6.834;2023-07-29T15:50:52;23.40;99.90
57026;DHT22;43961;52.940;6.834;2023-07-29T15:53:17;23.30;99.90
57026;DHT22;43961;52.940;6.834;2023-07-29T15:55:43;23.20;99.90
57026;DHT22;43961;52.940;6.834;2023-07-29T15:58:09;23.50;99.90
57026;DHT22;43961;52.940;6.834;2023-07-29T16:00:34;23.70;99.90
57026;DHT22;43961;52.940;6.834;2023-07-29T16:03:00;23.70;99.90
57026;DHT22;43961;52.940;6.834;2023-07-29T16:05:26;23.40;99.90
57026;DHT22;43961;52.940;6.834;2023-07-29T16:07:52;23.50;99.90
57026;DHT22;43961;52.940;6.834;2023-07-29T16:10:18;23.40;99.90
57026;DHT22;43961;52.940;6.834;2023-07-29T16:12:44;23.40;99.90
57026;DHT22;43961;52.940;6.834;2023-07-29T16:15:10;23.30;99.90
57026;DHT22;43961;52.940;6.834;2023-07-29T16:17:36;23.30;99.90
57026;DHT22;43961;52.940;6.834;2023-07-29T16:20:02;23.30;99.90
57026;DHT22;43961;52.940;6.834;2023-07-29T16:22:29;23.60;99.90
57026;DHT22;43961;52.940;6.834;2023-07-29T16:24:55;23.60;99.90
57026;DHT22;43961;52.940;6.834;2023-07-29T16:27:20;23.40;99.90
57026;DHT22;43961;52.940;6.834;2023-07-29T16:29:48;23.50;99.90
57026;DHT22;43961;52.940;6.834;2023-07-29T16:32:15;23.60;99.90
57026;DHT22;43961;52.940;6.834;2023-07-29T16:34:41;23.50;99.90
57026;DHT22;43961;52.940;6.834;2023-07-29T16:37:07;23.40;99.90
57026;DHT22;43961;52.940;6.834;2023-07-29T16:39:33;23.30;99.90
57026;DHT22;43961;52.940;6.834;2023-07-29T16:42:02;23.20;99.90
57026;DHT22;43961;52.940;6.834;2023-07-29T16:44:28;23.20;99.90
57026;DHT22;43961;52.940;6.834;2023-07-29T16:46:54;23.20;99.90
57026;DHT22;43961;52.940;6.834;2023-07-29T16:49:19;23.30;99.90
57026;DHT22;43961;52.940;6.834;2023-07-29T16:51:45;23.50;99.90
57026;DHT22;43961;52.940;6.834;2023-07-29T16:54:11;23.30;99.90
57026;DHT22;43961;52.940;6.834;2023-07-29T16:56:36;23.50;99.90
57026;DHT22;43961;52.940;6.834;2023-07-29T16:59:02;23.50;99.90
57026;DHT22;43961;52.940;6.834;2023-07-29T17:01:28;23.30;99.90
57026;DHT22;43961;52.940;6.834;2023-07-29T17:03:53;23.30;99.90
57026;DHT22;43961;52.940;6.834;2023-07-29T17:06:19;23.30;99.90
57026;DHT22;43961;52.940;6.834;2023-07-29T17:08:44;23.10;99.90
57026;DHT22;43961;52.940;6.834;2023-07-29T17:11:10;23.00;99.90
57026;DHT22;43961;52.940;6.834;2023-07-29T17:13:36;23.00;99.90
57026;DHT22;43961;52.940;6.834;2023-07-29T17:16:02;23.10;99.90
57026;DHT22;43961;52.940;6.834;2023-07-29T17:18:28;23.20;99.90
57026;DHT22;43961;52.940;6.834;2023-07-29T17:20:53;23.20;99.90
57026;DHT22;43961;52.940;6.834;2023-07-29T17:23:19;23.30;99.90
57026;DHT22;43961;52.940;6.834;2023-07-29T17:25:45;23.00;99.90
57026;DHT22;43961;52.940;6.834;2023-07-29T17:28:10;22.90;99.90
57026;DHT22;43961;52.940;6.834;2023-07-29T17:30:36;23.10;99.90
57026;DHT22;43961;52.940;6.834;2023-07-29T17:33:02;22.90;99.90
57026;DHT22;43961;52.940;6.834;2023-07-29T17:35:29;23.10;99.90
57026;DHT22;43961;52.940;6.834;2023-07-29T17:37:54;22.90;99.90
57026;DHT22;43961;52.940;6.834;2023-07-29T17:40:20;22.90;99.90
57026;DHT22;43961;52.940;6.834;2023-07-29T17:42:46;23.00;99.90
57026;DHT22;43961;52.940;6.834;2023-07-29T17:45:11;22.70;99.90
57026;DHT22;43961;52.940;6.834;2023-07-29T17:47:37;22.70;99.90
57026;DHT22;43961;52.940;6.834;2023-07-29T17:50:03;22.70;99.90
57026;DHT22;43961;52.940;6.834;2023-07-29T17:52:29;22.80;99.90
57026;DHT22;43961;52.940;6.834;2023-07-29T17:54:54;22.80;99.90
57026;DHT22;43961;52.940;6.834;2023-07-29T17:57:20;22.60;99.90
57026;DHT22;43961;52.940;6.834;2023-07-29T17:59:46;22.80;99.90
57026;DHT22;43961;52.940;6.834;2023-07-29T18:02:11;22.50;99.90
57026;DHT22;43961;52.940;6.834;2023-07-29T18:04:37;22.70;99.90
57026;DHT22;43961;52.940;6.834;2023-07-29T18:07:03;22.40;99.90
57026;DHT22;43961;52.940;6.834;2023-07-29T18:09:29;22.40;99.90
57026;DHT22;43961;52.940;6.834;2023-07-29T18:11:55;22.50;99.90
57026;DHT22;43961;52.940;6.834;2023-07-29T18:14:21;22.40;99.90
57026;DHT22;43961;52.940;6.834;2023-07-29T18:16:47;22.30;99.90
57026;DHT22;43961;52.940;6.834;2023-07-29T18:19:13;22.50;99.90
57026;DHT22;43961;52.940;6.834;2023-07-29T18:21:38;22.20;99.90
57026;DHT22;43961;52.940;6.834;2023-07-29T18:24:04;22.10;99.90
57026;DHT22;43961;52.940;6.834;2023-07-29T18:26:30;22.00;99.90
57026;DHT22;43961;52.940;6.834;2023-07-29T18:28:56;22.00;99.90
57026;DHT22;43961;52.940;6.834;2023-07-29T18:31:21;21.80;99.90
57026;DHT22;43961;52.940;6.834;2023-07-29T18:33:47;22.00;99.90
57026;DHT22;43961;52.940;6.834;2023-07-29T18:36:13;21.80;99.90
57026;DHT22;43961;52.940;6.834;2023-07-29T18:38:40;21.90;99.90
57026;DHT22;43961;52.940;6.834;2023-07-29T18:41:06;21.90;99.90
57026;DHT22;43961;52.940;6.834;2023-07-29T18:43:31;21.50;99.90
57026;DHT22;43961;52.940;6.834;2023-07-29T18:45:57;21.50;99.90
57026;DHT22;43961;52.940;6.834;2023-07-29T18:48:24;21.70;99.90
57026;DHT22;43961;52.940;6.834;2023-07-29T18:50:50;21.40;99.90
57026;DHT22;43961;52.940;6.834;2023-07-29T18:53:16;21.30;99.90
57026;DHT22;43961;52.940;6.834;2023-07-29T18:55:44;21.30;99.90
57026;DHT22;43961;52.940;6.834;2023-07-29T18:58:10;21.20;99.90
57026;DHT22;43961;52.940;6.834;2023-07-29T19:00:36;21.40;99.90
57026;DHT22;43961;52.940;6.834;2023-07-29T19:03:03;21.30;99.90
57026;DHT22;43961;52.940;6.834;2023-07-29T19:05:29;21.00;99.90
57026;DHT22;43961;52.940;6.834;2023-07-29T19:07:55;21.10;99.90
57026;DHT22;43961;52.940;6.834;2023-07-29T19:10:20;21.20;99.90
57026;DHT22;43961;52.940;6.834;2023-07-29T19:12:47;20.80;99.90
57026;DHT22;43961;52.940;6.834;2023-07-29T19:15:13;20.70;99.90
57026;DHT22;43961;52.940;6.834;2023-07-29T19:17:38;20.60;99.90
57026;DHT22;43961;52.940;6.834;2023-07-29T19:20:04;20.80;99.90
57026;DHT22;43961;52.940;6.834;2023-07-29T19:22:32;20.40;99.90
57026;DHT22;43961;52.940;6.834;2023-07-29T19:24:57;20.70;99.90
57026;DHT22;43961;52.940;6.834;2023-07-29T19:27:24;20.60;99.90
57026;DHT22;43961;52.940;6.834;2023-07-29T19:29:50;20.20;99.90
57026;DHT22;43961;52.940;6.834;2023-07-29T19:32:15;20.20;99.90
57026;DHT22;43961;52.940;6.834;2023-07-29T19:34:41;20.10;99.90
57026;DHT22;43961;52.940;6.834;2023-07-29T19:37:07;20.20;99.90
57026;DHT22;43961;52.940;6.834;2023-07-29T19:39:33;20.20;99.90
57026;DHT22;43961;52.940;6.834;2023-07-29T19:41:58;19.80;99.90
57026;DHT22;43961;52.940;6.834;2023-07-29T19:44:24;20.00;99.90
57026;DHT22;43961;52.940;6.834;2023-07-29T19:46:50;19.80;99.90
57026;DHT22;43961;52.940;6.834;2023-07-29T19:49:16;19.50;99.90
57026;DHT22;43961;52.940;6.834;2023-07-29T19:51:42;19.50;99.90
57026;DHT22;43961;52.940;6.834;2023-07-29T19:54:07;19.50;99.90
57026;DHT22;43961;52.940;6.834;2023-07-29T19:56:33;19.30;99.90
57026;DHT22;43961;52.940;6.834;2023-07-29T19:58:58;19.30;99.90
57026;DHT22;43961;52.940;6.834;2023-07-29T20:01:24;19.20;99.90
57026;DHT22;43961;52.940;6.834;2023-07-29T20:03:50;19.10;99.90
57026;DHT22;43961;52.940;6.834;2023-07-29T20:06:16;19.10;99.90
57026;DHT22;43961;52.940;6.834;2023-07-29T20:08:41;18.90;99.90
57026;DHT22;43961;52.940;6.834;2023-07-29T20:11:08;18.90;99.90
57026;DHT22;43961;52.940;6.834;2023-07-29T20:13:34;18.80;99.90
57026;DHT22;43961;52.940;6.834;2023-07-29T20:16:00;18.70;99.90
57026;DHT22;43961;52.940;6.834;2023-07-29T20:18:25;18.80;99.90
57026;DHT22;43961;52.940;6.834;2023-07-29T20:20:51;18.80;99.90
57026;DHT22;43961;52.940;6.834;2023-07-29T20:23:17;18.60;99.90
57026;DHT22;43961;52.940;6.834;2023-07-29T20:25:43;18.40;99.90
57026;DHT22;43961;52.940;6.834;2023-07-29T20:28:08;18.20;99.90
57026;DHT22;43961;52.940;6.834;2023-07-29T20:39:07;18.20;99.90
57026;DHT22;43961;52.940;6.834;2023-07-29T20:41:33;17.80;99.90
57026;DHT22;43961;52.940;6.834;2023-07-29T20:43:59;17.90;99.90
57026;DHT22;43961;52.940;6.834;2023-07-29T20:46:24;17.90;99.90
57026;DHT22;43961;52.940;6.834;2023-07-29T20:48:50;17.60;99.90
57026;DHT22;43961;52.940;6.834;2023-07-29T20:51:17;17.70;99.90